sensor_id;sensor_type;location;lat;lon;timestamp;P1;durP1;ratioP1;P2;durP2;ratioP2
81336;SDS011;70799;48.000;10.584;2023-11-22T00:00:38;30.92;;;10.77;;
81336;SDS011;70799;48.000;10.584;2023-11-22T00:03:14;31.92;;;10.90;;
81336;SDS011;70799;48.000;10.584;2023-11-22T00:05:51;35.50;;;11.52;;
81336;SDS011;70799;48.000;10.584;2023-11-22T00:08:27;34.58;;;12.15;;
81336;SDS011;70799;48.000;10.584;2023-11-22T00:11:03;39.30;;;12.63;;
81336;SDS011;70799;48.000;10.584;2023-11-22T00:13:40;31.40;;;10.65;;
81336;SDS011;70799;48.000;10.584;2023-11-22T00:16:16;38.45;;;11.68;;
81336;SDS011;70799;48.000;10.584;2023-11-22T00:21:28;29.88;;;10.18;;
81336;SDS011;70799;48.000;10.584;2023-11-22T00:24:04;28.70;;;10.25;;
81336;SDS011;70799;48.000;10.584;2023-11-22T00:26:40;27.10;;;10.57;;
81336;SDS011;70799;48.000;10.584;2023-11-22T00:29:16;33.45;;;11.20;;
81336;SDS011;70799;48.000;10.584;2023-11-22T00:31:52;28.40;;;10.40;;
81336;SDS011;70799;48.000;10.584;2023-11-22T00:37:04;26.70;;;9.43;;
81336;SDS011;70799;48.000;10.584;2023-11-22T00:39:40;30.10;;;10.82;;
81336;SDS011;70799;48.000;10.584;2023-11-22T00:42:17;29.80;;;10.60;;
81336;SDS011;70799;48.000;10.584;2023-11-22T00:44:54;30.33;;;10.95;;
81336;SDS011;70799;48.000;10.584;2023-11-22T00:50:07;28.85;;;10.20;;
81336;SDS011;70799;48.000;10.584;2023-11-22T00:52:43;28.63;;;10.43;;
81336;SDS011;70799;48.000;10.584;2023-11-22T00:55:20;29.48;;;11.32;;
81336;SDS011;70799;48.000;10.584;2023-11-22T00:57:56;37.67;;;11.13;;
81336;SDS011;70799;48.000;10.584;2023-11-22T01:00:36;36.85;;;11.13;;
81336;SDS011;70799;48.000;10.584;2023-11-22T01:03:12;37.47;;;12.02;;
81336;SDS011;70799;48.000;10.584;2023-11-22T01:08:25;31.38;;;10.48;;
81336;SDS011;70799;48.000;10.584;2023-11-22T01:13:38;33.75;;;11.20;;
81336;SDS011;70799;48.000;10.584;2023-11-22T01:16:15;32.97;;;10.50;;
81336;SDS011;70799;48.000;10.584;2023-11-22T01:18:51;35.70;;;11.88;;
81336;SDS011;70799;48.000;10.584;2023-11-22T01:21:27;36.42;;;11.63;;
81336;SDS011;70799;48.000;10.584;2023-11-22T01:24:05;40.40;;;12.57;;
81336;SDS011;70799;48.000;10.584;2023-11-22T01:26:41;41.08;;;11.75;;
81336;SDS011;70799;48.000;10.584;2023-11-22T01:29:17;34.75;;;11.35;;
81336;SDS011;70799;48.000;10.584;2023-11-22T01:31:53;36.80;;;11.93;;
81336;SDS011;70799;48.000;10.584;2023-11-22T01:37:07;33.75;;;10.98;;
81336;SDS011;70799;48.000;10.584;2023-11-22T01:39:43;40.97;;;11.20;;
81336;SDS011;70799;48.000;10.584;2023-11-22T01:42:18;34.67;;;10.10;;
81336;SDS011;70799;48.000;10.584;2023-11-22T01:44:56;43.80;;;11.80;;
81336;SDS011;70799;48.000;10.584;2023-11-22T01:47:34;35.63;;;11.25;;
81336;SDS011;70799;48.000;10.584;2023-11-22T01:50:10;35.08;;;10.70;;
81336;SDS011;70799;48.000;10.584;2023-11-22T01:52:46;33.50;;;10.43;;
81336;SDS011;70799;48.000;10.584;2023-11-22T01:55:22;30.55;;;10.52;;
81336;SDS011;70799;48.000;10.584;2023-11-22T01:57:58;37.15;;;11.02;;
81336;SDS011;70799;48.000;10.584;2023-11-22T02:00:36;38.10;;;10.77;;
81336;SDS011;70799;48.000;10.584;2023-11-22T02:03:19;33.10;;;10.43;;
81336;SDS011;70799;48.000;10.584;2023-11-22T02:05:55;32.42;;;10.80;;
81336;SDS011;70799;48.000;10.584;2023-11-22T02:08:35;32.13;;;11.10;;
81336;SDS011;70799;48.000;10.584;2023-11-22T02:11:11;33.65;;;10.85;;
81336;SDS011;70799;48.000;10.584;2023-11-22T02:13:47;31.55;;;10.35;;
81336;SDS011;70799;48.000;10.584;2023-11-22T02:16:23;34.15;;;10.07;;
81336;SDS011;70799;48.000;10.584;2023-11-22T02:19:00;31.38;;;10.20;;
81336;SDS011;70799;48.000;10.584;2023-11-22T02:21:37;41.78;;;11.68;;
81336;SDS011;70799;48.000;10.584;2023-11-22T02:24:13;33.78;;;10.63;;
81336;SDS011;70799;48.000;10.584;2023-11-22T02:26:49;36.03;;;10.10;;
81336;SDS011;70799;48.000;10.584;2023-11-22T02:29:25;37.83;;;10.10;;
81336;SDS011;70799;48.000;10.584;2023-11-22T02:32:01;32.33;;;11.18;;
81336;SDS011;70799;48.000;10.584;2023-11-22T02:34:38;32.40;;;10.82;;
81336;SDS011;70799;48.000;10.584;2023-11-22T02:37:13;38.97;;;10.70;;
81336;SDS011;70799;48.000;10.584;2023-11-22T02:40:07;41.95;;;11.45;;
81336;SDS011;70799;48.000;10.584;2023-11-22T02:42:53;36.90;;;10.57;;
81336;SDS011;70799;48.000;10.584;2023-11-22T02:45:29;37.08;;;11.07;;
81336;SDS011;70799;48.000;10.584;2023-11-22T02:48:05;35.22;;;11.07;;
81336;SDS011;70799;48.000;10.584;2023-11-22T02:50:42;36.10;;;10.80;;
81336;SDS011;70799;48.000;10.584;2023-11-22T02:55:54;30.13;;;9.25;;
81336;SDS011;70799;48.000;10.584;2023-11-22T02:58:31;31.77;;;8.88;;
81336;SDS011;70799;48.000;10.584;2023-11-22T03:01:07;32.17;;;9.93;;
81336;SDS011;70799;48.000;10.584;2023-11-22T03:06:24;27.15;;;9.45;;
81336;SDS011;70799;48.000;10.584;2023-11-22T03:09:00;32.83;;;9.20;;
81336;SDS011;70799;48.000;10.584;2023-11-22T03:11:36;34.90;;;10.00;;
81336;SDS011;70799;48.000;10.584;2023-11-22T03:14:13;35.05;;;10.07;;
81336;SDS011;70799;48.000;10.584;2023-11-22T03:16:49;36.95;;;10.23;;
81336;SDS011;70799;48.000;10.584;2023-11-22T03:22:02;31.05;;;9.18;;
81336;SDS011;70799;48.000;10.584;2023-11-22T03:24:39;22.33;;;7.32;;
81336;SDS011;70799;48.000;10.584;2023-11-22T03:27:14;20.00;;;6.95;;
81336;SDS011;70799;48.000;10.584;2023-11-22T03:29:53;23.95;;;8.15;;
81336;SDS011;70799;48.000;10.584;2023-11-22T03:32:28;28.00;;;8.48;;
81336;SDS011;70799;48.000;10.584;2023-11-22T03:35:09;8.57;;;3.17;;
81336;SDS011;70799;48.000;10.584;2023-11-22T03:37:46;8.38;;;3.40;;
81336;SDS011;70799;48.000;10.584;2023-11-22T03:40:22;10.13;;;3.72;;
81336;SDS011;70799;48.000;10.584;2023-11-22T03:42:58;8.63;;;3.05;;
81336;SDS011;70799;48.000;10.584;2023-11-22T03:45:34;11.20;;;3.42;;
81336;SDS011;70799;48.000;10.584;2023-11-22T03:48:10;10.43;;;3.72;;
81336;SDS011;70799;48.000;10.584;2023-11-22T03:50:46;9.80;;;3.45;;
81336;SDS011;70799;48.000;10.584;2023-11-22T03:53:22;11.65;;;4.25;;
81336;SDS011;70799;48.000;10.584;2023-11-22T03:55:58;13.73;;;4.93;;
81336;SDS011;70799;48.000;10.584;2023-11-22T03:58:34;15.82;;;5.43;;
81336;SDS011;70799;48.000;10.584;2023-11-22T04:01:11;15.38;;;5.10;;
81336;SDS011;70799;48.000;10.584;2023-11-22T04:03:48;13.57;;;5.03;;
81336;SDS011;70799;48.000;10.584;2023-11-22T04:06:24;14.23;;;5.38;;
81336;SDS011;70799;48.000;10.584;2023-11-22T04:09:00;14.48;;;4.90;;
81336;SDS011;70799;48.000;10.584;2023-11-22T04:11:37;14.23;;;5.10;;
81336;SDS011;70799;48.000;10.584;2023-11-22T04:14:13;13.38;;;4.72;;
81336;SDS011;70799;48.000;10.584;2023-11-22T04:16:53;11.02;;;4.32;;
81336;SDS011;70799;48.000;10.584;2023-11-22T04:19:29;14.52;;;4.78;;
81336;SDS011;70799;48.000;10.584;2023-11-22T04:22:05;13.00;;;4.82;;
81336;SDS011;70799;48.000;10.584;2023-11-22T04:24:42;9.90;;;3.40;;
81336;SDS011;70799;48.000;10.584;2023-11-22T04:27:18;9.77;;;3.28;;
81336;SDS011;70799;48.000;10.584;2023-11-22T04:29:54;11.55;;;4.18;;
81336;SDS011;70799;48.000;10.584;2023-11-22T04:32:30;11.13;;;4.10;;
81336;SDS011;70799;48.000;10.584;2023-11-22T04:35:06;10.75;;;3.67;;
81336;SDS011;70799;48.000;10.584;2023-11-22T04:37:42;14.90;;;4.40;;
81336;SDS011;70799;48.000;10.584;2023-11-22T04:48:06;10.18;;;3.70;;
81336;SDS011;70799;48.000;10.584;2023-11-22T04:50:42;12.75;;;4.60;;
81336;SDS011;70799;48.000;10.584;2023-11-22T04:53:18;14.20;;;5.20;;
81336;SDS011;70799;48.000;10.584;2023-11-22T04:58:33;15.30;;;5.88;;
81336;SDS011;70799;48.000;10.584;2023-11-22T05:01:09;18.10;;;6.13;;
81336;SDS011;70799;48.000;10.584;2023-11-22T05:03:48;16.80;;;6.15;;
81336;SDS011;70799;48.000;10.584;2023-11-22T05:06:24;19.67;;;6.13;;
81336;SDS011;70799;48.000;10.584;2023-11-22T05:09:01;13.82;;;5.70;;
81336;SDS011;70799;48.000;10.584;2023-11-22T05:11:37;21.42;;;7.57;;
81336;SDS011;70799;48.000;10.584;2023-11-22T05:14:13;17.55;;;5.95;;
81336;SDS011;70799;48.000;10.584;2023-11-22T05:16:49;16.63;;;6.35;;
81336;SDS011;70799;48.000;10.584;2023-11-22T05:19:25;18.45;;;5.97;;
81336;SDS011;70799;48.000;10.584;2023-11-22T05:22:02;16.25;;;5.47;;
81336;SDS011;70799;48.000;10.584;2023-11-22T05:24:38;15.80;;;5.38;;
81336;SDS011;70799;48.000;10.584;2023-11-22T05:27:14;9.65;;;3.97;;
81336;SDS011;70799;48.000;10.584;2023-11-22T05:29:50;11.15;;;4.80;;
81336;SDS011;70799;48.000;10.584;2023-11-22T05:32:27;9.80;;;4.40;;
81336;SDS011;70799;48.000;10.584;2023-11-22T05:35:03;12.68;;;5.93;;
81336;SDS011;70799;48.000;10.584;2023-11-22T05:37:42;13.68;;;5.07;;
81336;SDS011;70799;48.000;10.584;2023-11-22T05:42:54;14.82;;;5.22;;
81336;SDS011;70799;48.000;10.584;2023-11-22T05:45:30;14.77;;;5.60;;
81336;SDS011;70799;48.000;10.584;2023-11-22T05:48:06;16.25;;;5.78;;
81336;SDS011;70799;48.000;10.584;2023-11-22T05:58:32;13.75;;;6.05;;
81336;SDS011;70799;48.000;10.584;2023-11-22T06:01:10;14.27;;;5.47;;
81336;SDS011;70799;48.000;10.584;2023-11-22T06:03:46;22.67;;;7.15;;
81336;SDS011;70799;48.000;10.584;2023-11-22T06:06:23;18.85;;;6.65;;
81336;SDS011;70799;48.000;10.584;2023-11-22T06:08:58;15.77;;;5.78;;
81336;SDS011;70799;48.000;10.584;2023-11-22T06:11:37;18.88;;;6.82;;
81336;SDS011;70799;48.000;10.584;2023-11-22T06:16:49;16.95;;;7.18;;
81336;SDS011;70799;48.000;10.584;2023-11-22T06:19:25;18.52;;;7.10;;
81336;SDS011;70799;48.000;10.584;2023-11-22T06:22:01;21.65;;;7.50;;
81336;SDS011;70799;48.000;10.584;2023-11-22T06:24:37;23.02;;;7.60;;
81336;SDS011;70799;48.000;10.584;2023-11-22T06:27:13;21.70;;;7.45;;
81336;SDS011;70799;48.000;10.584;2023-11-22T06:29:49;23.92;;;7.90;;
81336;SDS011;70799;48.000;10.584;2023-11-22T06:32:25;24.38;;;8.88;;
81336;SDS011;70799;48.000;10.584;2023-11-22T06:35:02;24.98;;;7.82;;
81336;SDS011;70799;48.000;10.584;2023-11-22T06:37:41;24.38;;;8.77;;
81336;SDS011;70799;48.000;10.584;2023-11-22T06:40:16;22.50;;;7.70;;
81336;SDS011;70799;48.000;10.584;2023-11-22T06:42:52;26.00;;;8.93;;
81336;SDS011;70799;48.000;10.584;2023-11-22T06:45:28;25.83;;;8.70;;
81336;SDS011;70799;48.000;10.584;2023-11-22T06:48:05;27.90;;;8.07;;
81336;SDS011;70799;48.000;10.584;2023-11-22T06:50:41;30.33;;;9.32;;
81336;SDS011;70799;48.000;10.584;2023-11-22T06:53:17;26.52;;;8.68;;
81336;SDS011;70799;48.000;10.584;2023-11-22T06:55:53;25.17;;;8.43;;
81336;SDS011;70799;48.000;10.584;2023-11-22T06:58:29;23.80;;;7.57;;
81336;SDS011;70799;48.000;10.584;2023-11-22T07:01:05;24.63;;;7.80;;
81336;SDS011;70799;48.000;10.584;2023-11-22T07:03:45;24.10;;;8.68;;
81336;SDS011;70799;48.000;10.584;2023-11-22T07:08:58;26.23;;;8.90;;
81336;SDS011;70799;48.000;10.584;2023-11-22T07:11:34;30.63;;;8.85;;
81336;SDS011;70799;48.000;10.584;2023-11-22T07:14:10;27.50;;;8.13;;
81336;SDS011;70799;48.000;10.584;2023-11-22T07:16:46;20.73;;;6.63;;
81336;SDS011;70799;48.000;10.584;2023-11-22T07:19:25;26.35;;;8.65;;
81336;SDS011;70799;48.000;10.584;2023-11-22T07:24:48;23.50;;;7.78;;
81336;SDS011;70799;48.000;10.584;2023-11-22T07:27:26;20.20;;;7.20;;
81336;SDS011;70799;48.000;10.584;2023-11-22T07:30:03;29.60;;;8.00;;
81336;SDS011;70799;48.000;10.584;2023-11-22T07:32:39;21.92;;;7.35;;
81336;SDS011;70799;48.000;10.584;2023-11-22T07:35:16;21.67;;;6.90;;
81336;SDS011;70799;48.000;10.584;2023-11-22T07:37:52;23.83;;;6.85;;
81336;SDS011;70799;48.000;10.584;2023-11-22T07:40:29;23.63;;;7.50;;
81336;SDS011;70799;48.000;10.584;2023-11-22T07:43:06;24.08;;;7.53;;
81336;SDS011;70799;48.000;10.584;2023-11-22T07:45:42;26.58;;;8.43;;
81336;SDS011;70799;48.000;10.584;2023-11-22T07:48:23;26.67;;;8.25;;
81336;SDS011;70799;48.000;10.584;2023-11-22T07:51:00;18.95;;;7.35;;
81336;SDS011;70799;48.000;10.584;2023-11-22T07:53:37;26.52;;;7.07;;
81336;SDS011;70799;48.000;10.584;2023-11-22T07:56:13;27.75;;;8.30;;
81336;SDS011;70799;48.000;10.584;2023-11-22T07:58:50;21.33;;;6.68;;
81336;SDS011;70799;48.000;10.584;2023-11-22T08:04:03;20.20;;;5.57;;
81336;SDS011;70799;48.000;10.584;2023-11-22T08:06:42;17.73;;;5.70;;
81336;SDS011;70799;48.000;10.584;2023-11-22T08:09:18;21.30;;;6.57;;
81336;SDS011;70799;48.000;10.584;2023-11-22T08:11:54;20.13;;;6.03;;
81336;SDS011;70799;48.000;10.584;2023-11-22T08:14:30;19.20;;;6.43;;
81336;SDS011;70799;48.000;10.584;2023-11-22T08:17:06;19.58;;;7.63;;
81336;SDS011;70799;48.000;10.584;2023-11-22T08:19:44;15.57;;;5.75;;
81336;SDS011;70799;48.000;10.584;2023-11-22T08:22:20;17.60;;;6.70;;
81336;SDS011;70799;48.000;10.584;2023-11-22T08:24:58;19.27;;;5.53;;
81336;SDS011;70799;48.000;10.584;2023-11-22T08:27:35;15.77;;;6.10;;
81336;SDS011;70799;48.000;10.584;2023-11-22T08:30:11;20.45;;;6.35;;
81336;SDS011;70799;48.000;10.584;2023-11-22T08:32:48;19.52;;;6.40;;
81336;SDS011;70799;48.000;10.584;2023-11-22T08:35:27;15.43;;;5.70;;
81336;SDS011;70799;48.000;10.584;2023-11-22T08:38:03;14.82;;;5.93;;
81336;SDS011;70799;48.000;10.584;2023-11-22T08:40:41;22.27;;;7.35;;
81336;SDS011;70799;48.000;10.584;2023-11-22T08:43:18;16.23;;;7.13;;
81336;SDS011;70799;48.000;10.584;2023-11-22T08:45:55;16.08;;;6.30;;
81336;SDS011;70799;48.000;10.584;2023-11-22T08:48:43;16.40;;;6.32;;
81336;SDS011;70799;48.000;10.584;2023-11-22T08:51:19;16.88;;;6.63;;
81336;SDS011;70799;48.000;10.584;2023-11-22T08:53:55;13.68;;;5.93;;
81336;SDS011;70799;48.000;10.584;2023-11-22T08:56:33;19.90;;;6.28;;
81336;SDS011;70799;48.000;10.584;2023-11-22T08:59:09;12.50;;;5.28;;
81336;SDS011;70799;48.000;10.584;2023-11-22T09:01:45;13.98;;;5.75;;
81336;SDS011;70799;48.000;10.584;2023-11-22T09:04:21;16.42;;;5.85;;
81336;SDS011;70799;48.000;10.584;2023-11-22T09:07:00;13.88;;;5.75;;
81336;SDS011;70799;48.000;10.584;2023-11-22T09:09:37;15.88;;;6.68;;
81336;SDS011;70799;48.000;10.584;2023-11-22T09:12:15;20.45;;;6.85;;
81336;SDS011;70799;48.000;10.584;2023-11-22T09:14:51;14.45;;;6.38;;
81336;SDS011;70799;48.000;10.584;2023-11-22T09:17:27;13.52;;;6.72;;
81336;SDS011;70799;48.000;10.584;2023-11-22T09:20:04;20.15;;;7.45;;
81336;SDS011;70799;48.000;10.584;2023-11-22T09:22:50;14.63;;;6.60;;
81336;SDS011;70799;48.000;10.584;2023-11-22T09:25:27;18.10;;;7.50;;
81336;SDS011;70799;48.000;10.584;2023-11-22T09:28:03;17.35;;;7.75;;
81336;SDS011;70799;48.000;10.584;2023-11-22T09:30:40;17.17;;;7.78;;
81336;SDS011;70799;48.000;10.584;2023-11-22T09:33:18;23.80;;;9.05;;
81336;SDS011;70799;48.000;10.584;2023-11-22T09:35:54;20.25;;;7.72;;
81336;SDS011;70799;48.000;10.584;2023-11-22T09:38:30;18.45;;;7.07;;
81336;SDS011;70799;48.000;10.584;2023-11-22T09:41:06;20.95;;;8.05;;
81336;SDS011;70799;48.000;10.584;2023-11-22T09:43:43;20.02;;;8.05;;
81336;SDS011;70799;48.000;10.584;2023-11-22T09:46:22;21.83;;;8.18;;
81336;SDS011;70799;48.000;10.584;2023-11-22T09:48:59;16.45;;;7.25;;
81336;SDS011;70799;48.000;10.584;2023-11-22T09:51:36;17.95;;;7.90;;
81336;SDS011;70799;48.000;10.584;2023-11-22T09:54:16;18.77;;;7.03;;
81336;SDS011;70799;48.000;10.584;2023-11-22T09:56:54;16.02;;;6.57;;
81336;SDS011;70799;48.000;10.584;2023-11-22T09:59:33;23.98;;;8.35;;
81336;SDS011;70799;48.000;10.584;2023-11-22T10:02:10;18.33;;;7.43;;
81336;SDS011;70799;48.000;10.584;2023-11-22T10:07:23;16.88;;;7.78;;
81336;SDS011;70799;48.000;10.584;2023-11-22T10:10:02;15.98;;;6.68;;
81336;SDS011;70799;48.000;10.584;2023-11-22T10:12:42;19.70;;;8.10;;
81336;SDS011;70799;48.000;10.584;2023-11-22T10:15:19;18.50;;;8.98;;
81336;SDS011;70799;48.000;10.584;2023-11-22T10:17:56;17.73;;;7.68;;
81336;SDS011;70799;48.000;10.584;2023-11-22T10:20:36;13.18;;;6.60;;
81336;SDS011;70799;48.000;10.584;2023-11-22T10:23:13;16.58;;;6.72;;
81336;SDS011;70799;48.000;10.584;2023-11-22T10:25:56;14.57;;;6.78;;
81336;SDS011;70799;48.000;10.584;2023-11-22T10:28:35;16.50;;;6.95;;
81336;SDS011;70799;48.000;10.584;2023-11-22T10:31:11;17.50;;;7.72;;
81336;SDS011;70799;48.000;10.584;2023-11-22T10:33:50;14.68;;;6.45;;
81336;SDS011;70799;48.000;10.584;2023-11-22T10:36:28;18.45;;;7.45;;
81336;SDS011;70799;48.000;10.584;2023-11-22T10:39:04;15.38;;;7.28;;
81336;SDS011;70799;48.000;10.584;2023-11-22T10:41:48;14.95;;;7.20;;
81336;SDS011;70799;48.000;10.584;2023-11-22T10:44:25;13.18;;;6.82;;
81336;SDS011;70799;48.000;10.584;2023-11-22T10:47:02;12.27;;;6.50;;
81336;SDS011;70799;48.000;10.584;2023-11-22T10:49:38;12.13;;;6.05;;
81336;SDS011;70799;48.000;10.584;2023-11-22T10:52:15;13.15;;;5.97;;
81336;SDS011;70799;48.000;10.584;2023-11-22T10:54:54;13.45;;;6.55;;
81336;SDS011;70799;48.000;10.584;2023-11-22T10:57:44;13.43;;;6.25;;
81336;SDS011;70799;48.000;10.584;2023-11-22T11:00:24;13.75;;;6.57;;
81336;SDS011;70799;48.000;10.584;2023-11-22T11:06:11;13.38;;;6.65;;
81336;SDS011;70799;48.000;10.584;2023-11-22T11:08:48;11.38;;;5.97;;
81336;SDS011;70799;48.000;10.584;2023-11-22T11:16:38;11.48;;;6.10;;
81336;SDS011;70799;48.000;10.584;2023-11-22T11:19:20;13.80;;;6.38;;
81336;SDS011;70799;48.000;10.584;2023-11-22T11:21:57;15.70;;;7.55;;
81336;SDS011;70799;48.000;10.584;2023-11-22T11:24:40;13.25;;;6.68;;
81336;SDS011;70799;48.000;10.584;2023-11-22T11:27:16;13.07;;;7.10;;
81336;SDS011;70799;48.000;10.584;2023-11-22T11:29:52;12.20;;;6.78;;
81336;SDS011;70799;48.000;10.584;2023-11-22T11:32:30;13.07;;;6.22;;
81336;SDS011;70799;48.000;10.584;2023-11-22T11:35:07;11.00;;;5.93;;
81336;SDS011;70799;48.000;10.584;2023-11-22T11:37:46;12.57;;;5.85;;
81336;SDS011;70799;48.000;10.584;2023-11-22T11:40:25;11.07;;;6.15;;
81336;SDS011;70799;48.000;10.584;2023-11-22T11:43:02;12.02;;;5.88;;
81336;SDS011;70799;48.000;10.584;2023-11-22T11:45:41;12.98;;;6.55;;
81336;SDS011;70799;48.000;10.584;2023-11-22T11:48:19;10.93;;;6.25;;
81336;SDS011;70799;48.000;10.584;2023-11-22T11:50:57;14.70;;;7.53;;
81336;SDS011;70799;48.000;10.584;2023-11-22T11:53:34;14.77;;;7.07;;
81336;SDS011;70799;48.000;10.584;2023-11-22T11:56:10;11.77;;;5.88;;
81336;SDS011;70799;48.000;10.584;2023-11-22T11:58:47;15.27;;;6.32;;
81336;SDS011;70799;48.000;10.584;2023-11-22T12:01:24;13.45;;;6.65;;
81336;SDS011;70799;48.000;10.584;2023-11-22T12:04:02;13.98;;;7.25;;
81336;SDS011;70799;48.000;10.584;2023-11-22T12:06:38;12.93;;;7.03;;
81336;SDS011;70799;48.000;10.584;2023-11-22T12:09:14;13.88;;;6.13;;
81336;SDS011;70799;48.000;10.584;2023-11-22T12:11:49;12.40;;;6.18;;
81336;SDS011;70799;48.000;10.584;2023-11-22T12:14:26;10.23;;;5.05;;
81336;SDS011;70799;48.000;10.584;2023-11-22T12:17:03;12.25;;;6.07;;
81336;SDS011;70799;48.000;10.584;2023-11-22T12:19:40;14.55;;;6.47;;
81336;SDS011;70799;48.000;10.584;2023-11-22T12:22:16;12.82;;;6.05;;
81336;SDS011;70799;48.000;10.584;2023-11-22T12:24:52;13.10;;;5.35;;
81336;SDS011;70799;48.000;10.584;2023-11-22T12:27:28;12.35;;;6.10;;
81336;SDS011;70799;48.000;10.584;2023-11-22T12:30:04;10.75;;;5.53;;
81336;SDS011;70799;48.000;10.584;2023-11-22T12:32:41;11.80;;;5.18;;
81336;SDS011;70799;48.000;10.584;2023-11-22T12:35:17;11.23;;;5.72;;
81336;SDS011;70799;48.000;10.584;2023-11-22T12:43:05;10.77;;;5.88;;
81336;SDS011;70799;48.000;10.584;2023-11-22T12:45:41;15.82;;;5.68;;
81336;SDS011;70799;48.000;10.584;2023-11-22T12:48:25;12.93;;;6.07;;
81336;SDS011;70799;48.000;10.584;2023-11-22T12:51:02;11.05;;;5.68;;
81336;SDS011;70799;48.000;10.584;2023-11-22T12:53:38;10.98;;;5.68;;
81336;SDS011;70799;48.000;10.584;2023-11-22T12:56:14;11.68;;;6.03;;
81336;SDS011;70799;48.000;10.584;2023-11-22T12:58:50;12.32;;;5.65;;
81336;SDS011;70799;48.000;10.584;2023-11-22T13:01:26;9.90;;;5.65;;
81336;SDS011;70799;48.000;10.584;2023-11-22T13:06:38;10.75;;;5.82;;
81336;SDS011;70799;48.000;10.584;2023-11-22T13:09:14;11.65;;;6.13;;
81336;SDS011;70799;48.000;10.584;2023-11-22T13:11:50;11.48;;;6.20;;
81336;SDS011;70799;48.000;10.584;2023-11-22T13:14:26;11.25;;;6.25;;
81336;SDS011;70799;48.000;10.584;2023-11-22T13:17:09;12.57;;;6.32;;
81336;SDS011;70799;48.000;10.584;2023-11-22T13:19:46;12.50;;;6.05;;
81336;SDS011;70799;48.000;10.584;2023-11-22T13:22:22;12.43;;;6.30;;
81336;SDS011;70799;48.000;10.584;2023-11-22T13:24:59;10.60;;;5.32;;
81336;SDS011;70799;48.000;10.584;2023-11-22T13:30:11;11.95;;;6.40;;
81336;SDS011;70799;48.000;10.584;2023-11-22T13:32:47;12.80;;;5.88;;
81336;SDS011;70799;48.000;10.584;2023-11-22T13:35:29;12.65;;;5.97;;
81336;SDS011;70799;48.000;10.584;2023-11-22T13:38:10;12.68;;;5.75;;
81336;SDS011;70799;48.000;10.584;2023-11-22T13:40:47;12.90;;;6.18;;
81336;SDS011;70799;48.000;10.584;2023-11-22T13:48:35;11.90;;;5.47;;
81336;SDS011;70799;48.000;10.584;2023-11-22T13:53:47;11.27;;;5.93;;
81336;SDS011;70799;48.000;10.584;2023-11-22T13:56:25;13.48;;;6.50;;
81336;SDS011;70799;48.000;10.584;2023-11-22T13:59:01;14.88;;;6.93;;
81336;SDS011;70799;48.000;10.584;2023-11-22T14:01:37;15.35;;;6.70;;
81336;SDS011;70799;48.000;10.584;2023-11-22T14:04:14;14.65;;;6.25;;
81336;SDS011;70799;48.000;10.584;2023-11-22T14:06:50;14.18;;;7.03;;
81336;SDS011;70799;48.000;10.584;2023-11-22T14:09:26;12.35;;;6.25;;
81336;SDS011;70799;48.000;10.584;2023-11-22T14:12:02;11.32;;;5.60;;
81336;SDS011;70799;48.000;10.584;2023-11-22T14:14:39;12.25;;;6.55;;
81336;SDS011;70799;48.000;10.584;2023-11-22T14:17:15;13.80;;;5.90;;
81336;SDS011;70799;48.000;10.584;2023-11-22T14:19:54;13.02;;;6.05;;
81336;SDS011;70799;48.000;10.584;2023-11-22T14:22:35;14.68;;;6.65;;
81336;SDS011;70799;48.000;10.584;2023-11-22T14:25:12;12.95;;;6.47;;
81336;SDS011;70799;48.000;10.584;2023-11-22T14:27:49;12.02;;;6.15;;
81336;SDS011;70799;48.000;10.584;2023-11-22T14:30:41;13.80;;;5.95;;
81336;SDS011;70799;48.000;10.584;2023-11-22T14:33:17;13.35;;;6.38;;
81336;SDS011;70799;48.000;10.584;2023-11-22T14:35:53;12.23;;;5.65;;
81336;SDS011;70799;48.000;10.584;2023-11-22T14:38:29;11.50;;;6.22;;
81336;SDS011;70799;48.000;10.584;2023-11-22T14:41:06;13.55;;;5.93;;
81336;SDS011;70799;48.000;10.584;2023-11-22T14:43:44;12.15;;;6.40;;
81336;SDS011;70799;48.000;10.584;2023-11-22T14:46:20;10.55;;;5.10;;
81336;SDS011;70799;48.000;10.584;2023-11-22T14:48:56;11.80;;;5.68;;
81336;SDS011;70799;48.000;10.584;2023-11-22T14:51:33;12.32;;;5.82;;
81336;SDS011;70799;48.000;10.584;2023-11-22T14:54:10;11.32;;;5.20;;
81336;SDS011;70799;48.000;10.584;2023-11-22T14:56:46;11.75;;;5.72;;
81336;SDS011;70799;48.000;10.584;2023-11-22T14:59:22;14.30;;;6.45;;
81336;SDS011;70799;48.000;10.584;2023-11-22T15:01:58;10.55;;;5.60;;
81336;SDS011;70799;48.000;10.584;2023-11-22T15:04:40;10.77;;;5.60;;
81336;SDS011;70799;48.000;10.584;2023-11-22T15:07:16;10.95;;;5.82;;
81336;SDS011;70799;48.000;10.584;2023-11-22T15:09:52;11.20;;;5.25;;
81336;SDS011;70799;48.000;10.584;2023-11-22T15:12:28;10.65;;;5.15;;
81336;SDS011;70799;48.000;10.584;2023-11-22T15:15:06;12.38;;;5.43;;
81336;SDS011;70799;48.000;10.584;2023-11-22T15:17:43;10.57;;;5.38;;
81336;SDS011;70799;48.000;10.584;2023-11-22T15:20:19;11.90;;;5.63;;
81336;SDS011;70799;48.000;10.584;2023-11-22T15:22:55;12.95;;;5.80;;
81336;SDS011;70799;48.000;10.584;2023-11-22T15:25:34;12.25;;;6.30;;
81336;SDS011;70799;48.000;10.584;2023-11-22T15:30:53;13.27;;;6.10;;
81336;SDS011;70799;48.000;10.584;2023-11-22T15:33:33;12.82;;;5.63;;
81336;SDS011;70799;48.000;10.584;2023-11-22T15:38:55;10.30;;;5.20;;
81336;SDS011;70799;48.000;10.584;2023-11-22T15:41:33;12.32;;;5.35;;
81336;SDS011;70799;48.000;10.584;2023-11-22T15:44:09;9.70;;;4.80;;
81336;SDS011;70799;48.000;10.584;2023-11-22T15:46:45;13.80;;;5.30;;
81336;SDS011;70799;48.000;10.584;2023-11-22T15:49:22;11.10;;;5.32;;
81336;SDS011;70799;48.000;10.584;2023-11-22T15:51:58;12.18;;;5.72;;
81336;SDS011;70799;48.000;10.584;2023-11-22T15:54:34;11.63;;;5.28;;
81336;SDS011;70799;48.000;10.584;2023-11-22T15:57:10;10.05;;;5.13;;
81336;SDS011;70799;48.000;10.584;2023-11-22T15:59:46;12.50;;;5.28;;
81336;SDS011;70799;48.000;10.584;2023-11-22T16:02:23;12.70;;;5.45;;
81336;SDS011;70799;48.000;10.584;2023-11-22T16:04:59;11.30;;;4.63;;
81336;SDS011;70799;48.000;10.584;2023-11-22T16:07:35;10.13;;;5.00;;
81336;SDS011;70799;48.000;10.584;2023-11-22T16:10:11;9.20;;;4.50;;
81336;SDS011;70799;48.000;10.584;2023-11-22T16:12:49;10.48;;;5.15;;
81336;SDS011;70799;48.000;10.584;2023-11-22T16:18:01;11.70;;;4.70;;
81336;SDS011;70799;48.000;10.584;2023-11-22T16:20:38;11.63;;;5.22;;
81336;SDS011;70799;48.000;10.584;2023-11-22T16:23:14;9.10;;;4.78;;
81336;SDS011;70799;48.000;10.584;2023-11-22T16:25:50;11.30;;;5.68;;
81336;SDS011;70799;48.000;10.584;2023-11-22T16:28:26;12.77;;;5.75;;
81336;SDS011;70799;48.000;10.584;2023-11-22T16:31:03;12.20;;;5.57;;
81336;SDS011;70799;48.000;10.584;2023-11-22T16:33:42;15.48;;;5.38;;
81336;SDS011;70799;48.000;10.584;2023-11-22T16:36:19;9.35;;;4.80;;
81336;SDS011;70799;48.000;10.584;2023-11-22T16:38:55;12.05;;;5.85;;
81336;SDS011;70799;48.000;10.584;2023-11-22T16:41:33;10.82;;;5.15;;
81336;SDS011;70799;48.000;10.584;2023-11-22T16:44:09;11.40;;;4.70;;
81336;SDS011;70799;48.000;10.584;2023-11-22T16:46:46;10.55;;;4.90;;
81336;SDS011;70799;48.000;10.584;2023-11-22T16:49:23;14.77;;;6.20;;